Johann Essberger — CQKG — position and weather

sailwx.info

Track history (hours):
 
Tides and Currents Weather Stations Pressure Air Temp Water Temp Dewpoint Dewpoint Depression Visibility Wind Speed Wind Dir Waves Ship Positions

Johann Essberger

Last reported at 2016-May-05 16:33 UTC. Time now 2016-May-06 03:39 UTC.
Position N 51°17' E 004°20'.

Length 100 m; draft 5.7 m.

Type: Tanker. MMSI: 255804460.

Date/timePositionNaut miles runAvg speedWind from/ knotsBaromVisibWave heightAir tempDewpointWater temp
2016-May-05 16:33N 51°17' E 004°20'1 0.6
2016-May-05 15:33N 51°17' E 004°20'9 8.8
2016-May-05 14:33N 51°23' E 004°10'8 8.3
2016-May-05 13:34N 51°24' E 003°57'1111.1
2016-May-05 12:33N 51°25' E 003°39'1311.5
2016-May-05 11:27N 51°34' E 003°25'2211.4
2016-May-05 09:32N 51°48' E 002°57'1212.5
2016-May-05 08:33N 51°56' E 002°43'1414.0
2016-May-05 07:33N 52°07' E 002°30'1614.3
2016-May-05 06:25N 52°23' E 002°20'1315.2
2016-May-05 05:33N 52°36' E 002°18'1414.4
2016-May-05 04:34N 52°50' E 002°16'1312.9
2016-May-05 03:33N 53°01' E 002°05'1212.5
2016-May-05 02:33N 53°08' E 001°48'1212.1
2016-May-05 01:33N 53°10' E 001°28'1311.4
2016-May-05 00:25N 53°16' E 001°09'1011.0
2016-May-04 23:33N 53°21' E 000°55'1111.3
2016-May-04 22:33N 53°28' E 000°40'1211.8
2016-May-04 21:33N 53°32' E 000°22'1211.9
2016-May-04 20:34N 53°35' E 000°02'8 7.9
2016-May-04 19:30N 53°38' W 000°11'0 0.0
2016-May-03 16:09N 53°38' W 000°11'4 6.8
2016-May-03 15:33N 53°37' W 000°04'1212.1
2016-May-03 14:33N 53°33' E 000°15'7 2.4
2016-May-03 11:30N 53°36' E 000°27'0 0.1
2016-May-03 10:24N 53°36' E 000°27'0 0.1
2016-May-03 09:30N 53°36' E 000°27'0 0.0
2016-May-03 08:12N 53°36' E 000°27'0 0.0
2016-May-03 07:33N 53°36' E 000°27'0 0.0
2016-May-03 06:25N 53°36' E 000°27'25 7.6
2016-May-03 03:10N 53°21' E 000°59'711.1
2016-May-03 02:32N 53°15' E 001°07'1111.5
2016-May-03 01:33N 53°07' E 001°19'1111.5
2016-May-03 00:33N 52°59' E 001°32'1211.6
2016-May-02 23:33N 52°50' E 001°46'1211.8
2016-May-02 22:33N 52°41' E 001°58'1212.0
2016-May-02 21:33N 52°31' E 002°08'6111.7
2016-May-02 16:20N 51°44' E 003°13'911.9
2016-May-02 15:33N 51°37' E 003°22'1212.2
2016-May-02 14:33N 51°27' E 003°33'1211.8
2016-May-02 13:33N 51°21' E 003°49'9 9.5
2016-May-02 12:33N 51°22' E 004°04'1010.4
2016-May-02 11:33N 51°17' E 004°19'1 1.4
2016-May-02 10:30N 51°16' E 004°20'2 1.8
2016-May-02 09:33N 51°15' E 004°23'0 0.0
2016-May-01 18:19N 51°15' E 004°23'1 0.6
2016-May-01 17:25N 51°16' E 004°22'0 0.0
2016-May-01 15:19N 51°16' E 004°22'0 0.0
2016-Apr-30 19:33N 51°16' E 004°22'2 1.7
2016-Apr-30 18:33N 51°17' E 004°20'3 2.7
2016-Apr-30 17:33N 51°18' E 004°16'10 9.8
2016-Apr-30 16:33N 51°23' E 004°03'8 7.9
2016-Apr-30 15:33N 51°21' E 003°50'1111.5
2016-Apr-30 14:33N 51°26' E 003°34'9 9.0
2016-Apr-30 13:33N 51°33' E 003°25'14 0.7
2016-Apr-29 16:20N 51°47' E 003°19'1012.5
2016-Apr-29 15:32N 51°46' E 003°02'5012.3
2016-Apr-29 11:30N 52°26' E 002°13'1314.2
2016-Apr-29 10:33N 52°38' E 002°04'1413.7
2016-Apr-29 09:34N 52°49' E 001°50'1413.6
2016-Apr-29 08:34N 52°58' E 001°33'1212.5
2016-Apr-29 07:33N 53°08' E 001°22'1611.3
2016-Apr-29 06:10N 53°22' E 001°09'4211.4
2016-Apr-29 02:31N 53°57' E 000°31'1111.7
2016-Apr-29 01:33N 54°06' E 000°20'1211.9
2016-Apr-29 00:33N 54°15' E 000°06'1212.2
2016-Apr-28 23:33N 54°23' W 000°09'1312.7
2016-Apr-28 22:34N 54°32' W 000°25'1413.3
2016-Apr-28 21:31N 54°38' W 000°47'1212.0
2016-Apr-28 20:32N 54°40' W 001°06'8 7.6
2016-Apr-28 19:32N 54°35' W 001°16'0 0.0
2016-Apr-28 18:16N 54°35' W 001°16'0 0.0
2016-Apr-28 05:33N 54°35' W 001°16'2 1.8
2016-Apr-28 04:22N 54°35' W 001°12'2 0.9
2016-Apr-28 02:28N 54°36' W 001°10'0 0.0
2016-Apr-28 01:31N 54°36' W 001°10'0 0.0
2016-Apr-28 00:31N 54°36' W 001°10'0 0.0
2016-Apr-27 23:31N 54°36' W 001°10'1 0.9
2016-Apr-27 22:33N 54°37' W 001°09'0 0.0
2016-Apr-27 13:22N 54°37' W 001°09'2 2.4
2016-Apr-27 12:33N 54°39' W 001°08'7 6.7
2016-Apr-27 11:33N 54°42' W 000°58'1 1.3
2016-Apr-27 10:25N 54°40' W 000°57'1 1.4
2016-Apr-27 09:32N 54°39' W 000°56'1 0.6
2016-Apr-27 08:28N 54°39' W 000°57'3 2.8
2016-Apr-27 07:30N 54°41' W 000°58'1 1.2
2016-Apr-27 06:32N 54°40' W 000°57'1 1.1
2016-Apr-27 05:31N 54°39' W 000°56'2 1.8
2016-Apr-27 04:33N 54°38' W 000°55'4 4.0
2016-Apr-27 03:33N 54°41' W 000°60'6 5.6
2016-Apr-27 02:33N 54°45' W 001°05'5 5.4
2016-Apr-27 01:33N 54°50' W 001°10'4 3.6
2016-Apr-27 00:33N 54°47' W 001°07'4 4.1
2016-Apr-26 23:32N 54°43' W 001°03'4 4.2
2016-Apr-26 22:33N 54°40' W 000°59'9 9.3
2016-Apr-26 21:33N 54°37' W 000°44'9 8.8
2016-Apr-26 20:32N 54°34' W 000°29'8 7.8
2016-Apr-26 19:33N 54°29' W 000°19'7 7.1
2016-Apr-26 18:33N 54°24' W 000°11'7 6.9
2016-Apr-26 17:33N 54°19' W 000°02'7 6.7
2016-Apr-26 16:33N 54°14' E 000°06'7 7.0
2016-Apr-26 15:33N 54°09' E 000°14'68 8.6
2016-Apr-26 07:33N 53°13' E 001°21'8 8.1
2016-Apr-26 06:33N 53°10' E 001°33'11 9.2
2016-Apr-26 05:24N 53°07' E 001°50'101 8.4
2016-Apr-25 17:21N 51°41' E 003°18'  
Track history (hours):
 
Tides and Currents Weather Stations Pressure Air Temp Water Temp Dewpoint Dewpoint Depression Visibility Wind Speed Wind Dir Waves Ship Positions

Johann Essberger

Last reported at 2016-May-05 16:33 UTC. Time now 2016-May-06 03:39 UTC.
Position N 51°17' E 004°20'.

Length 100 m; draft 5.7 m.

Type: Tanker. MMSI: 255804460.

Date/timePositionNaut miles runAvg speedWind from/ knotsBaromVisibWave heightAir tempDewpointWater temp
2016-May-05 16:33N 51°17' E 004°20'1 0.6
2016-May-05 15:33N 51°17' E 004°20'9 8.8
2016-May-05 14:33N 51°23' E 004°10'8 8.3
2016-May-05 13:34N 51°24' E 003°57'1111.1
2016-May-05 12:33N 51°25' E 003°39'1311.5
2016-May-05 11:27N 51°34' E 003°25'2211.4
2016-May-05 09:32N 51°48' E 002°57'1212.5
2016-May-05 08:33N 51°56' E 002°43'1414.0
2016-May-05 07:33N 52°07' E 002°30'1614.3
2016-May-05 06:25N 52°23' E 002°20'1315.2
2016-May-05 05:33N 52°36' E 002°18'1414.4
2016-May-05 04:34N 52°50' E 002°16'1312.9
2016-May-05 03:33N 53°01' E 002°05'1212.5
2016-May-05 02:33N 53°08' E 001°48'1212.1
2016-May-05 01:33N 53°10' E 001°28'1311.4
2016-May-05 00:25N 53°16' E 001°09'1011.0
2016-May-04 23:33N 53°21' E 000°55'1111.3
2016-May-04 22:33N 53°28' E 000°40'1211.8
2016-May-04 21:33N 53°32' E 000°22'1211.9
2016-May-04 20:34N 53°35' E 000°02'8 7.9
2016-May-04 19:30N 53°38' W 000°11'0 0.0
2016-May-03 16:09N 53°38' W 000°11'4 6.8
2016-May-03 15:33N 53°37' W 000°04'1212.1
2016-May-03 14:33N 53°33' E 000°15'7 2.4
2016-May-03 11:30N 53°36' E 000°27'0 0.1
2016-May-03 10:24N 53°36' E 000°27'0 0.1
2016-May-03 09:30N 53°36' E 000°27'0 0.0
2016-May-03 08:12N 53°36' E 000°27'0 0.0
2016-May-03 07:33N 53°36' E 000°27'0 0.0
2016-May-03 06:25N 53°36' E 000°27'25 7.6
2016-May-03 03:10N 53°21' E 000°59'711.1
2016-May-03 02:32N 53°15' E 001°07'1111.5
2016-May-03 01:33N 53°07' E 001°19'1111.5
2016-May-03 00:33N 52°59' E 001°32'1211.6
2016-May-02 23:33N 52°50' E 001°46'1211.8
2016-May-02 22:33N 52°41' E 001°58'1212.0
2016-May-02 21:33N 52°31' E 002°08'6111.7
2016-May-02 16:20N 51°44' E 003°13'911.9
2016-May-02 15:33N 51°37' E 003°22'1212.2
2016-May-02 14:33N 51°27' E 003°33'1211.8
2016-May-02 13:33N 51°21' E 003°49'9 9.5
2016-May-02 12:33N 51°22' E 004°04'1010.4
2016-May-02 11:33N 51°17' E 004°19'1 1.4
2016-May-02 10:30N 51°16' E 004°20'2 1.8
2016-May-02 09:33N 51°15' E 004°23'0 0.0
2016-May-01 18:19N 51°15' E 004°23'1 0.6
2016-May-01 17:25N 51°16' E 004°22'0 0.0
2016-May-01 15:19N 51°16' E 004°22'0 0.0
2016-Apr-30 19:33N 51°16' E 004°22'2 1.7
2016-Apr-30 18:33N 51°17' E 004°20'3 2.7
2016-Apr-30 17:33N 51°18' E 004°16'10 9.8
2016-Apr-30 16:33N 51°23' E 004°03'8 7.9
2016-Apr-30 15:33N 51°21' E 003°50'1111.5
2016-Apr-30 14:33N 51°26' E 003°34'9 9.0
2016-Apr-30 13:33N 51°33' E 003°25'14 0.7
2016-Apr-29 16:20N 51°47' E 003°19'1012.5
2016-Apr-29 15:32N 51°46' E 003°02'5012.3
2016-Apr-29 11:30N 52°26' E 002°13'1314.2
2016-Apr-29 10:33N 52°38' E 002°04'1413.7
2016-Apr-29 09:34N 52°49' E 001°50'1413.6
2016-Apr-29 08:34N 52°58' E 001°33'1212.5
2016-Apr-29 07:33N 53°08' E 001°22'1611.3
2016-Apr-29 06:10N 53°22' E 001°09'4211.4
2016-Apr-29 02:31N 53°57' E 000°31'1111.7
2016-Apr-29 01:33N 54°06' E 000°20'1211.9
2016-Apr-29 00:33N 54°15' E 000°06'1212.2
2016-Apr-28 23:33N 54°23' W 000°09'1312.7
2016-Apr-28 22:34N 54°32' W 000°25'1413.3
2016-Apr-28 21:31N 54°38' W 000°47'1212.0
2016-Apr-28 20:32N 54°40' W 001°06'8 7.6
2016-Apr-28 19:32N 54°35' W 001°16'0 0.0
2016-Apr-28 18:16N 54°35' W 001°16'0 0.0
2016-Apr-28 05:33N 54°35' W 001°16'2 1.8
2016-Apr-28 04:22N 54°35' W 001°12'2 0.9
2016-Apr-28 02:28N 54°36' W 001°10'0 0.0
2016-Apr-28 01:31N 54°36' W 001°10'0 0.0
2016-Apr-28 00:31N 54°36' W 001°10'0 0.0
2016-Apr-27 23:31N 54°36' W 001°10'1 0.9
2016-Apr-27 22:33N 54°37' W 001°09'0 0.0
2016-Apr-27 13:22N 54°37' W 001°09'2 2.4
2016-Apr-27 12:33N 54°39' W 001°08'7 6.7
2016-Apr-27 11:33N 54°42' W 000°58'1 1.3
2016-Apr-27 10:25N 54°40' W 000°57'1 1.4
2016-Apr-27 09:32N 54°39' W 000°56'1 0.6
2016-Apr-27 08:28N 54°39' W 000°57'3 2.8
2016-Apr-27 07:30N 54°41' W 000°58'1 1.2
2016-Apr-27 06:32N 54°40' W 000°57'1 1.1
2016-Apr-27 05:31N 54°39' W 000°56'2 1.8
2016-Apr-27 04:33N 54°38' W 000°55'4 4.0
2016-Apr-27 03:33N 54°41' W 000°60'6 5.6
2016-Apr-27 02:33N 54°45' W 001°05'5 5.4
2016-Apr-27 01:33N 54°50' W 001°10'4 3.6
2016-Apr-27 00:33N 54°47' W 001°07'4 4.1
2016-Apr-26 23:32N 54°43' W 001°03'4 4.2
2016-Apr-26 22:33N 54°40' W 000°59'9 9.3
2016-Apr-26 21:33N 54°37' W 000°44'9 8.8
2016-Apr-26 20:32N 54°34' W 000°29'8 7.8
2016-Apr-26 19:33N 54°29' W 000°19'7 7.1
2016-Apr-26 18:33N 54°24' W 000°11'7 6.9
2016-Apr-26 17:33N 54°19' W 000°02'7 6.7
2016-Apr-26 16:33N 54°14' E 000°06'7 7.0
2016-Apr-26 15:33N 54°09' E 000°14'68 8.6
2016-Apr-26 07:33N 53°13' E 001°21'8 8.1
2016-Apr-26 06:33N 53°10' E 001°33'11 9.2
2016-Apr-26 05:24N 53°07' E 001°50'101 8.4
2016-Apr-25 17:21N 51°41' E 003°18'  

Dump ship's entire track history